PWSweather.com
Personal Weather Stations
Station Observations
KILMORRI1
Goose Lake, Morris, IL 60450

Goose LakeMorris, IL 60450

Lat: 41.34, Lon: -88.3

Elevation: 523

Station Type:

www.gooselakeweather.com

High Low Average
Temperature 12.6°F-10.8°C -8.2°F-22.3°C 2.7°F-16.3°C
Dew Point 6.8°F-14.0°C -16.6°F-27.0°C -4.7°F-20.4°C
Winds 18.4 mph 29.6 kmh Calm Calm 7.0 mph WSW11.3 kmh WSW
Wind Gusts 24.2 mph38.9 kmh -- 11.0 mph17.7 kmh
Humidity 79% 58% 71%
Pressure 30.14 in1020.7 mb 29.97 in1014.9 mb -
Precipitation 0.00 in0.0 mm - -
Hour Temp Dew Point Humidity Winds Wind Gusts Pressure Precip Precip Rate Daily Precip Total
12:00 AM 12.6°F-10.8°C 6.8°F-14.0°C 77% 8.1 mph W13.0 kmh W 13.8 mph22.2 kmh 29.97 in1014.9 mb - 0.00 in0.0 mm 0.00 in0.0 mm
12:10 AM 12.6°F-10.8°C 5.6°F-14.7°C 73% 8.1 mph WNW13.0 kmh WNW 13.8 mph22.2 kmh 29.97 in1014.9 mb - 0.00 in0.0 mm 0.00 in0.0 mm
12:20 AM 12.5°F-10.8°C 5.2°F-14.9°C 72% 8.1 mph WNW13.0 kmh WNW 11.5 mph18.5 kmh 29.97 in1014.9 mb - 0.00 in0.0 mm 0.00 in0.0 mm
12:30 AM 12.2°F-11.0°C 5.8°F-14.6°C 75% 10.4 mph WSW16.7 kmh WSW 15.0 mph24.1 kmh 29.97 in1014.9 mb - 0.00 in0.0 mm 0.00 in0.0 mm
12:40 AM 11.7°F-11.3°C 5.9°F-14.5°C 77% 9.2 mph W14.8 kmh W 11.5 mph18.5 kmh 29.98 in1015.2 mb - 0.00 in0.0 mm 0.00 in0.0 mm
12:50 AM 11.4°F-11.4°C 5.9°F-14.5°C 78% 4.6 mph WSW7.4 kmh WSW 6.9 mph11.1 kmh 29.98 in1015.2 mb - 0.00 in0.0 mm 0.00 in0.0 mm
01:00 AM 11.1°F-11.6°C 5.9°F-14.5°C 79% 9.2 mph WSW14.8 kmh WSW 13.8 mph22.2 kmh 29.98 in1015.2 mb - 0.00 in0.0 mm 0.00 in0.0 mm
01:10 AM 10.7°F-11.8°C 5.5°F-14.7°C 79% 6.9 mph WNW11.1 kmh WNW 10.4 mph16.7 kmh 29.98 in1015.2 mb - 0.00 in0.0 mm 0.00 in0.0 mm
01:20 AM 10.3°F-12.1°C 5.1°F-14.9°C 79% 11.5 mph W18.5 kmh W 15.0 mph24.1 kmh 29.98 in1015.2 mb - 0.00 in0.0 mm 0.00 in0.0 mm
01:30 AM 10.0°F-12.2°C 4.8°F-15.1°C 79% 6.9 mph WSW11.1 kmh WSW 12.7 mph20.4 kmh 29.98 in1015.2 mb - 0.00 in0.0 mm 0.00 in0.0 mm
01:40 AM 9.7°F-12.4°C 4.5°F-15.3°C 79% 6.9 mph W11.1 kmh W 12.7 mph20.4 kmh 29.98 in1015.2 mb - 0.00 in0.0 mm 0.00 in0.0 mm
01:50 AM 9.3°F-12.6°C 4.1°F-15.5°C 79% 9.2 mph W14.8 kmh W 11.5 mph18.5 kmh 29.98 in1015.2 mb - 0.00 in0.0 mm 0.00 in0.0 mm
02:00 AM 8.8°F-12.9°C 3.6°F-15.8°C 79% 8.1 mph W13.0 kmh W 10.4 mph16.7 kmh 29.98 in1015.2 mb - 0.00 in0.0 mm 0.00 in0.0 mm
02:10 AM 8.4°F-13.1°C 3.2°F-16.0°C 79% 8.1 mph WSW13.0 kmh WSW 16.1 mph25.9 kmh 29.98 in1015.2 mb - 0.00 in0.0 mm 0.00 in0.0 mm
02:20 AM 8.1°F-13.3°C 2.9°F-16.2°C 79% 6.9 mph W11.1 kmh W 11.5 mph18.5 kmh 29.98 in1015.2 mb - 0.00 in0.0 mm 0.00 in0.0 mm
02:30 AM 8.0°F-13.3°C 2.9°F-16.2°C 79% 5.8 mph W9.3 kmh W 8.1 mph13.0 kmh 29.98 in1015.2 mb - 0.00 in0.0 mm 0.00 in0.0 mm
02:40 AM 8.0°F-13.3°C 2.8°F-16.2°C 79% 8.1 mph WSW13.0 kmh WSW 15.0 mph24.1 kmh 29.98 in1015.2 mb - 0.00 in0.0 mm 0.00 in0.0 mm
02:50 AM 7.6°F-13.6°C 2.2°F-16.6°C 78% 6.9 mph WSW11.1 kmh WSW 8.1 mph13.0 kmh 29.98 in1015.2 mb - 0.00 in0.0 mm 0.00 in0.0 mm
03:00 AM 7.3°F-13.7°C 1.9°F-16.7°C 78% 5.8 mph WSW9.3 kmh WSW 11.5 mph18.5 kmh 29.98 in1015.2 mb - 0.00 in0.0 mm 0.00 in0.0 mm
03:10 AM 7.1°F-13.8°C 1.4°F-17.0°C 77% 9.2 mph WSW14.8 kmh WSW 11.5 mph18.5 kmh 29.99 in1015.6 mb - 0.00 in0.0 mm 0.00 in0.0 mm
03:20 AM 6.6°F-14.1°C 1.0°F-17.2°C 77% 5.8 mph WSW9.3 kmh WSW 11.5 mph18.5 kmh 29.99 in1015.6 mb - 0.00 in0.0 mm 0.00 in0.0 mm
03:30 AM 6.3°F-14.3°C 0.6°F-17.4°C 77% 4.6 mph W7.4 kmh W 4.6 mph7.4 kmh 29.99 in1015.6 mb - 0.00 in0.0 mm 0.00 in0.0 mm
03:40 AM 5.4°F-14.8°C -0.5°F-18.1°C 76% 6.9 mph W11.1 kmh W 11.5 mph18.5 kmh 29.99 in1015.6 mb - 0.00 in0.0 mm 0.00 in0.0 mm
03:50 AM 5.0°F-15.0°C -0.6°F-18.1°C 77% 8.1 mph W13.0 kmh W 10.4 mph16.7 kmh 29.99 in1015.6 mb - 0.00 in0.0 mm 0.00 in0.0 mm
04:00 AM 4.7°F-15.2°C -0.9°F-18.3°C 77% 5.8 mph W9.3 kmh W 8.1 mph13.0 kmh 30.00 in1015.9 mb - 0.00 in0.0 mm 0.00 in0.0 mm
04:10 AM 4.4°F-15.3°C -1.5°F-18.6°C 76% 8.1 mph W13.0 kmh W 10.4 mph16.7 kmh 29.99 in1015.6 mb - 0.00 in0.0 mm 0.00 in0.0 mm
04:20 AM 4.4°F-15.3°C -1.5°F-18.6°C 76% 3.5 mph WSW5.6 kmh WSW 5.8 mph9.3 kmh 30.00 in1015.9 mb - 0.00 in0.0 mm 0.00 in0.0 mm
04:30 AM 4.2°F-15.4°C -1.7°F-18.7°C 76% 3.5 mph W5.6 kmh W 9.2 mph14.8 kmh 30.00 in1015.9 mb - 0.00 in0.0 mm 0.00 in0.0 mm
04:40 AM 3.4°F-15.9°C -2.5°F-19.2°C 76% 6.9 mph WSW11.1 kmh WSW 10.4 mph16.7 kmh 30.00 in1015.9 mb - 0.00 in0.0 mm 0.00 in0.0 mm
04:50 AM 2.7°F-16.3°C -3.4°F-19.7°C 75% 5.8 mph W9.3 kmh W 9.2 mph14.8 kmh 30.00 in1015.9 mb - 0.00 in0.0 mm 0.00 in0.0 mm
05:00 AM 2.2°F-16.6°C -3.9°F-19.9°C 75% 9.2 mph W14.8 kmh W 13.8 mph22.2 kmh 30.00 in1015.9 mb - 0.00 in0.0 mm 0.00 in0.0 mm
05:10 AM 1.9°F-16.7°C -4.2°F-20.1°C 75% 5.8 mph WSW9.3 kmh WSW 11.5 mph18.5 kmh 30.00 in1015.9 mb - 0.00 in0.0 mm 0.00 in0.0 mm
05:20 AM 1.7°F-16.8°C -4.4°F-20.2°C 75% 5.8 mph WSW9.3 kmh WSW 8.1 mph13.0 kmh 30.00 in1015.9 mb - 0.00 in0.0 mm 0.00 in0.0 mm
05:30 AM 1.5°F-16.9°C -4.6°F-20.3°C 75% 4.6 mph WSW7.4 kmh WSW 6.9 mph11.1 kmh 30.00 in1015.9 mb - 0.00 in0.0 mm 0.00 in0.0 mm
05:40 AM 1.1°F-17.2°C -5.0°F-20.6°C 75% 3.5 mph SW5.6 kmh SW 5.8 mph9.3 kmh 30.00 in1015.9 mb - 0.00 in0.0 mm 0.00 in0.0 mm
05:50 AM 0.7°F-17.4°C -5.1°F-20.6°C 76% 3.5 mph SW5.6 kmh SW 5.8 mph9.3 kmh 30.01 in1016.3 mb - 0.00 in0.0 mm 0.00 in0.0 mm
06:00 AM 0.3°F-17.6°C -5.5°F-20.8°C 76% 3.5 mph SW5.6 kmh SW 3.5 mph5.6 kmh 30.01 in1016.3 mb - 0.00 in0.0 mm 0.00 in0.0 mm
06:10 AM 0.0°F-17.8°C -5.8°F-21.0°C 76% 4.6 mph SW7.4 kmh SW 6.9 mph11.1 kmh 30.01 in1016.3 mb - 0.00 in0.0 mm 0.00 in0.0 mm
06:20 AM -0.4°F-18.0°C -6.1°F-21.2°C 76% 3.5 mph SW5.6 kmh SW 5.8 mph9.3 kmh 30.00 in1015.9 mb - 0.00 in0.0 mm 0.00 in0.0 mm
06:30 AM -0.6°F-18.1°C -6.1°F-21.2°C 77% 5.8 mph SW9.3 kmh SW 10.4 mph16.7 kmh 30.01 in1016.3 mb - 0.00 in0.0 mm 0.00 in0.0 mm
06:40 AM -0.8°F-18.2°C -6.3°F-21.3°C 77% 4.6 mph SW7.4 kmh SW 6.9 mph11.1 kmh 30.01 in1016.3 mb - 0.00 in0.0 mm 0.00 in0.0 mm
06:50 AM -1.0°F-18.3°C -6.5°F-21.4°C 77% 4.6 mph WSW7.4 kmh WSW 8.1 mph13.0 kmh 30.01 in1016.3 mb - 0.00 in0.0 mm 0.00 in0.0 mm
07:00 AM -1.0°F-18.3°C -6.5°F-21.4°C 77% 4.6 mph WSW7.4 kmh WSW 8.1 mph13.0 kmh 30.01 in1016.3 mb - 0.00 in0.0 mm 0.00 in0.0 mm
07:10 AM -1.2°F-18.4°C -6.6°F-21.4°C 77% 3.5 mph WSW5.6 kmh WSW 5.8 mph9.3 kmh 30.01 in1016.3 mb - 0.00 in0.0 mm 0.00 in0.0 mm
07:20 AM -1.3°F-18.5°C -6.8°F-21.6°C 77% 4.6 mph WSW7.4 kmh WSW 4.6 mph7.4 kmh 30.02 in1016.6 mb - 0.00 in0.0 mm 0.00 in0.0 mm
07:30 AM -1.1°F-18.4°C -6.3°F-21.3°C 78% 3.5 mph SW5.6 kmh SW 8.1 mph13.0 kmh 30.02 in1016.6 mb - 0.00 in0.0 mm 0.00 in0.0 mm
07:40 AM -0.8°F-18.2°C -6.0°F-21.1°C 78% 3.5 mph WSW5.6 kmh WSW 4.6 mph7.4 kmh 30.02 in1016.6 mb - 0.00 in0.0 mm 0.00 in0.0 mm
07:50 AM -0.3°F-17.9°C -5.8°F-21.0°C 77% 4.6 mph SW7.4 kmh SW 10.4 mph16.7 kmh 30.02 in1016.6 mb - 0.00 in0.0 mm 0.00 in0.0 mm
08:00 AM 0.2°F-17.7°C -5.3°F-20.7°C 77% 4.6 mph SW7.4 kmh SW 6.9 mph11.1 kmh 30.02 in1016.6 mb - 0.00 in0.0 mm 0.00 in0.0 mm
08:10 AM 0.6°F-17.4°C -5.2°F-20.7°C 76% 4.6 mph SW7.4 kmh SW 9.2 mph14.8 kmh 30.02 in1016.6 mb - 0.00 in0.0 mm 0.00 in0.0 mm
08:20 AM 1.1°F-17.2°C -4.7°F-20.4°C 76% 6.9 mph SW11.1 kmh SW 9.2 mph14.8 kmh 30.03 in1016.9 mb - 0.00 in0.0 mm 0.00 in0.0 mm
08:30 AM 1.8°F-16.8°C -4.0°F-20.0°C 76% 5.8 mph SW9.3 kmh SW 10.4 mph16.7 kmh 30.03 in1016.9 mb - 0.00 in0.0 mm 0.00 in0.0 mm
08:40 AM 2.5°F-16.4°C -2.8°F-19.3°C 78% 5.8 mph WSW9.3 kmh WSW 8.1 mph13.0 kmh 30.03 in1016.9 mb - 0.00 in0.0 mm 0.00 in0.0 mm
08:50 AM 3.3°F-15.9°C -2.3°F-19.1°C 77% 9.2 mph WSW14.8 kmh WSW 11.5 mph18.5 kmh 30.03 in1016.9 mb - 0.00 in0.0 mm 0.00 in0.0 mm
09:00 AM 4.0°F-15.6°C -1.6°F-18.7°C 77% 6.9 mph SW11.1 kmh SW 11.5 mph18.5 kmh 30.03 in1016.9 mb - 0.00 in0.0 mm 0.00 in0.0 mm
09:10 AM 4.4°F-15.3°C -1.2°F-18.4°C 77% 9.2 mph WSW14.8 kmh WSW 11.5 mph18.5 kmh 30.02 in1016.6 mb - 0.00 in0.0 mm 0.00 in0.0 mm
09:20 AM 5.1°F-14.9°C -0.5°F-18.1°C 77% 6.9 mph SW11.1 kmh SW 10.4 mph16.7 kmh 30.02 in1016.6 mb - 0.00 in0.0 mm 0.00 in0.0 mm
09:30 AM 5.7°F-14.6°C 0.3°F-17.6°C 78% 5.8 mph WSW9.3 kmh WSW 8.1 mph13.0 kmh 30.02 in1016.6 mb - 0.00 in0.0 mm 0.00 in0.0 mm
09:40 AM 6.0°F-14.4°C 0.4°F-17.6°C 77% 5.8 mph SW9.3 kmh SW 6.9 mph11.1 kmh 30.02 in1016.6 mb - 0.00 in0.0 mm 0.00 in0.0 mm
09:50 AM 6.7°F-14.1°C 0.4°F-17.6°C 75% 10.4 mph WSW16.7 kmh WSW 12.7 mph20.4 kmh 30.02 in1016.6 mb - 0.00 in0.0 mm 0.00 in0.0 mm
10:00 AM 6.3°F-14.3°C 0.1°F-17.7°C 75% 6.9 mph WSW11.1 kmh WSW 15.0 mph24.1 kmh 30.02 in1016.6 mb - 0.00 in0.0 mm 0.00 in0.0 mm
10:10 AM 6.6°F-14.1°C 0.4°F-17.6°C 75% 8.1 mph WSW13.0 kmh WSW 11.5 mph18.5 kmh 30.02 in1016.6 mb - 0.00 in0.0 mm 0.00 in0.0 mm
10:20 AM 7.7°F-13.5°C 1.1°F-17.2°C 74% 5.8 mph W9.3 kmh W 11.5 mph18.5 kmh 30.02 in1016.6 mb - 0.00 in0.0 mm 0.00 in0.0 mm
10:30 AM 7.2°F-13.8°C 0.9°F-17.3°C 75% 4.6 mph W7.4 kmh W 4.6 mph7.4 kmh 30.02 in1016.6 mb - 0.00 in0.0 mm 0.00 in0.0 mm
10:40 AM 6.8°F-14.0°C -0.1°F-17.8°C 73% 6.9 mph WSW11.1 kmh WSW 12.7 mph20.4 kmh 30.02 in1016.6 mb - 0.00 in0.0 mm 0.00 in0.0 mm
10:50 AM 6.7°F-14.1°C -0.5°F-18.1°C 72% 8.1 mph W13.0 kmh W 10.4 mph16.7 kmh 30.02 in1016.6 mb - 0.00 in0.0 mm 0.00 in0.0 mm
11:00 AM 6.8°F-14.0°C -1.0°F-18.3°C 70% 12.7 mph W20.4 kmh W 20.7 mph33.3 kmh 30.01 in1016.3 mb - 0.00 in0.0 mm 0.00 in0.0 mm
11:10 AM 6.5°F-14.2°C -0.9°F-18.3°C 71% 11.5 mph WNW18.5 kmh WNW 17.3 mph27.8 kmh 30.01 in1016.3 mb - 0.00 in0.0 mm 0.00 in0.0 mm
11:20 AM 7.2°F-13.8°C -0.8°F-18.2°C 69% 15.0 mph W24.1 kmh W 21.9 mph35.2 kmh 30.01 in1016.3 mb - 0.00 in0.0 mm 0.00 in0.0 mm
11:30 AM 7.6°F-13.6°C -0.5°F-18.1°C 69% 15.0 mph W24.1 kmh W 20.7 mph33.3 kmh 30.01 in1016.3 mb - 0.00 in0.0 mm 0.00 in0.0 mm
11:40 AM 6.6°F-14.1°C -1.4°F-18.6°C 69% 13.8 mph W22.2 kmh W 19.6 mph31.5 kmh 30.02 in1016.6 mb - 0.00 in0.0 mm 0.00 in0.0 mm
11:50 AM 7.0°F-13.9°C -0.4°F-18.0°C 71% 9.2 mph WNW14.8 kmh WNW 12.7 mph20.4 kmh 30.01 in1016.3 mb - 0.00 in0.0 mm 0.00 in0.0 mm
12:00 PM 6.6°F-14.1°C -1.1°F-18.4°C 70% 10.4 mph WNW16.7 kmh WNW 13.8 mph22.2 kmh 30.01 in1016.3 mb - 0.00 in0.0 mm 0.00 in0.0 mm
12:10 PM 5.9°F-14.5°C -1.2°F-18.4°C 72% 10.4 mph WNW16.7 kmh WNW 16.1 mph25.9 kmh 30.01 in1016.3 mb - 0.00 in0.0 mm 0.00 in0.0 mm
12:20 PM 7.2°F-13.8°C -0.9°F-18.3°C 69% 10.4 mph WNW16.7 kmh WNW 17.3 mph27.8 kmh 30.01 in1016.3 mb - 0.00 in0.0 mm 0.00 in0.0 mm
12:30 PM 6.8°F-14.0°C -1.9°F-18.8°C 67% 13.8 mph W22.2 kmh W 19.6 mph31.5 kmh 30.01 in1016.3 mb - 0.00 in0.0 mm 0.00 in0.0 mm
12:40 PM 7.3°F-13.7°C -1.0°F-18.3°C 68% 8.1 mph WNW13.0 kmh WNW 19.6 mph31.5 kmh 30.01 in1016.3 mb - 0.00 in0.0 mm 0.00 in0.0 mm
12:50 PM 7.3°F-13.7°C -2.3°F-19.1°C 64% 11.5 mph W18.5 kmh W 16.1 mph25.9 kmh 30.02 in1016.6 mb - 0.00 in0.0 mm 0.00 in0.0 mm
01:00 PM 7.9°F-13.4°C -1.4°F-18.6°C 65% 12.7 mph W20.4 kmh W 15.0 mph24.1 kmh 30.01 in1016.3 mb - 0.00 in0.0 mm 0.00 in0.0 mm
01:10 PM 7.1°F-13.8°C -2.2°F-19.0°C 65% 6.9 mph WSW11.1 kmh WSW 12.7 mph20.4 kmh 30.02 in1016.6 mb - 0.00 in0.0 mm 0.00 in0.0 mm
01:20 PM 7.1°F-13.8°C -1.9°F-18.8°C 66% 13.8 mph W22.2 kmh W 20.7 mph33.3 kmh 30.02 in1016.6 mb - 0.00 in0.0 mm 0.00 in0.0 mm
01:30 PM 7.0°F-13.9°C -2.3°F-19.1°C 65% 15.0 mph W24.1 kmh W 20.7 mph33.3 kmh 30.02 in1016.6 mb - 0.00 in0.0 mm 0.00 in0.0 mm
01:40 PM 7.3°F-13.7°C -2.0°F-18.9°C 65% 11.5 mph W18.5 kmh W 19.6 mph31.5 kmh 30.02 in1016.6 mb - 0.00 in0.0 mm 0.00 in0.0 mm
01:50 PM 7.5°F-13.6°C -2.5°F-19.2°C 63% 16.1 mph W25.9 kmh W 21.9 mph35.2 kmh 30.02 in1016.6 mb - 0.00 in0.0 mm 0.00 in0.0 mm
02:00 PM 7.4°F-13.7°C -2.6°F-19.2°C 63% 10.4 mph W16.7 kmh W 19.6 mph31.5 kmh 30.02 in1016.6 mb - 0.00 in0.0 mm 0.00 in0.0 mm
02:10 PM 7.1°F-13.8°C -2.6°F-19.2°C 64% 10.4 mph W16.7 kmh W 12.7 mph20.4 kmh 30.03 in1016.9 mb - 0.00 in0.0 mm 0.00 in0.0 mm
02:20 PM 6.9°F-13.9°C -3.7°F-19.8°C 61% 11.5 mph W18.5 kmh W 19.6 mph31.5 kmh 30.03 in1016.9 mb - 0.00 in0.0 mm 0.00 in0.0 mm
02:30 PM 7.1°F-13.8°C -2.6°F-19.2°C 64% 9.2 mph WSW14.8 kmh WSW 16.1 mph25.9 kmh 30.03 in1016.9 mb - 0.00 in0.0 mm 0.00 in0.0 mm
02:40 PM 6.5°F-14.2°C -4.5°F-20.3°C 60% 16.1 mph W25.9 kmh W 24.2 mph38.9 kmh 30.03 in1016.9 mb - 0.00 in0.0 mm 0.00 in0.0 mm
02:50 PM 6.4°F-14.2°C -4.2°F-20.1°C 61% 11.5 mph WNW18.5 kmh WNW 17.3 mph27.8 kmh 30.04 in1017.3 mb - 0.00 in0.0 mm 0.00 in0.0 mm
03:00 PM 6.0°F-14.4°C -5.6°F-20.9°C 58% 13.8 mph W22.2 kmh W 19.6 mph31.5 kmh 30.04 in1017.3 mb - 0.00 in0.0 mm 0.00 in0.0 mm
03:10 PM 4.8°F-15.1°C -6.0°F-21.1°C 60% 15.0 mph WSW24.1 kmh WSW 20.7 mph33.3 kmh 30.05 in1017.6 mb - 0.00 in0.0 mm 0.00 in0.0 mm
03:20 PM 5.1°F-14.9°C -4.8°F-20.4°C 63% 9.2 mph W14.8 kmh W 10.4 mph16.7 kmh 30.05 in1017.6 mb - 0.00 in0.0 mm 0.00 in0.0 mm
03:30 PM 4.8°F-15.1°C -5.7°F-20.9°C 61% 10.4 mph SW16.7 kmh SW 13.8 mph22.2 kmh 30.06 in1017.9 mb - 0.00 in0.0 mm 0.00 in0.0 mm
03:40 PM 4.2°F-15.4°C -6.0°F-21.1°C 62% 11.5 mph W18.5 kmh W 12.7 mph20.4 kmh 30.06 in1017.9 mb - 0.00 in0.0 mm 0.00 in0.0 mm
03:50 PM 4.0°F-15.6°C -6.2°F-21.2°C 62% 10.4 mph WSW16.7 kmh WSW 11.5 mph18.5 kmh 30.07 in1018.3 mb - 0.00 in0.0 mm 0.00 in0.0 mm
04:00 PM 3.3°F-15.9°C -6.5°F-21.4°C 63% 8.1 mph W13.0 kmh W 19.6 mph31.5 kmh 30.07 in1018.3 mb - 0.00 in0.0 mm 0.00 in0.0 mm
04:10 PM 3.3°F-15.9°C -6.2°F-21.2°C 64% 6.9 mph W11.1 kmh W 9.2 mph14.8 kmh 30.07 in1018.3 mb - 0.00 in0.0 mm 0.00 in0.0 mm
04:20 PM 2.8°F-16.2°C -6.0°F-21.1°C 66% 10.4 mph WSW16.7 kmh WSW 12.7 mph20.4 kmh 30.07 in1018.3 mb - 0.00 in0.0 mm 0.00 in0.0 mm
04:30 PM 2.5°F-16.4°C -6.3°F-21.3°C 66% 8.1 mph W13.0 kmh W 12.7 mph20.4 kmh 30.08 in1018.6 mb - 0.00 in0.0 mm 0.00 in0.0 mm
04:40 PM 1.8°F-16.8°C -7.9°F-22.2°C 63% 18.4 mph SW29.6 kmh SW 18.4 mph29.6 kmh 30.09 in1019.0 mb - 0.00 in0.0 mm 0.00 in0.0 mm
04:50 PM 1.5°F-16.9°C -8.2°F-22.3°C 63% Calm Calm -- 30.09 in1019.0 mb - 0.00 in0.0 mm 0.00 in0.0 mm
05:00 PM 1.3°F-17.1°C -8.4°F-22.4°C 63% Calm Calm -- 30.09 in1019.0 mb - 0.00 in0.0 mm 0.00 in0.0 mm
05:10 PM 0.9°F-17.3°C -8.8°F-22.7°C 63% Calm Calm -- 30.09 in1019.0 mb - 0.00 in0.0 mm 0.00 in0.0 mm
05:20 PM 0.4°F-17.6°C -8.9°F-22.7°C 64% Calm Calm -- 30.10 in1019.3 mb - 0.00 in0.0 mm 0.00 in0.0 mm
05:30 PM 0.0°F-17.8°C -8.7°F-22.6°C 66% Calm Calm -- 30.10 in1019.3 mb - 0.00 in0.0 mm 0.00 in0.0 mm
05:40 PM -0.5°F-18.1°C -8.5°F-22.5°C 68% Calm Calm -- 30.11 in1019.6 mb - 0.00 in0.0 mm 0.00 in0.0 mm
05:50 PM -0.5°F-18.1°C -8.8°F-22.7°C 67% Calm Calm -- 30.11 in1019.6 mb - 0.00 in0.0 mm 0.00 in0.0 mm
06:00 PM -0.7°F-18.2°C -10.0°F-23.3°C 64% Calm Calm -- 30.12 in1020.0 mb - 0.00 in0.0 mm 0.00 in0.0 mm
06:10 PM -1.0°F-18.3°C -10.6°F-23.7°C 63% Calm Calm -- 30.12 in1020.0 mb - 0.00 in0.0 mm 0.00 in0.0 mm
06:20 PM -1.5°F-18.6°C -10.7°F-23.7°C 64% Calm Calm -- 30.12 in1020.0 mb - 0.00 in0.0 mm 0.00 in0.0 mm
06:30 PM -1.8°F-18.8°C -10.7°F-23.7°C 65% Calm Calm -- 30.12 in1020.0 mb - 0.00 in0.0 mm 0.00 in0.0 mm
06:40 PM -2.0°F-18.9°C -10.9°F-23.8°C 65% Calm Calm -- 30.12 in1020.0 mb - 0.00 in0.0 mm 0.00 in0.0 mm
06:50 PM -2.1°F-18.9°C -11.3°F-24.1°C 64% Calm Calm -- 30.12 in1020.0 mb - 0.00 in0.0 mm 0.00 in0.0 mm
07:00 PM -2.4°F-19.1°C -11.3°F-24.1°C 65% Calm Calm -- 30.13 in1020.3 mb - 0.00 in0.0 mm 0.00 in0.0 mm
07:10 PM -2.6°F-19.2°C -11.5°F-24.2°C 65% 9.2 mph W14.8 kmh W 17.3 mph27.8 kmh 30.13 in1020.3 mb - 0.00 in0.0 mm 0.00 in0.0 mm
07:20 PM -2.9°F-19.4°C -11.7°F-24.3°C 65% 5.8 mph WSW9.3 kmh WSW 9.2 mph14.8 kmh 30.13 in1020.3 mb - 0.00 in0.0 mm 0.00 in0.0 mm
07:30 PM -3.0°F-19.4°C -11.5°F-24.2°C 66% 8.1 mph WSW13.0 kmh WSW 12.7 mph20.4 kmh 30.13 in1020.3 mb - 0.00 in0.0 mm 0.00 in0.0 mm
07:40 PM -3.2°F-19.6°C -11.7°F-24.3°C 66% 10.4 mph W16.7 kmh W 17.3 mph27.8 kmh 30.13 in1020.3 mb - 0.00 in0.0 mm 0.00 in0.0 mm
07:50 PM -3.3°F-19.6°C -11.8°F-24.3°C 66% 9.2 mph W14.8 kmh W 9.2 mph14.8 kmh 30.13 in1020.3 mb - 0.00 in0.0 mm 0.00 in0.0 mm
08:00 PM -3.5°F-19.7°C -12.0°F-24.4°C 66% 10.4 mph WSW16.7 kmh WSW 12.7 mph20.4 kmh 30.13 in1020.3 mb - 0.00 in0.0 mm 0.00 in0.0 mm
08:10 PM -3.7°F-19.8°C -12.2°F-24.6°C 66% 10.4 mph WSW16.7 kmh WSW 16.1 mph25.9 kmh 30.14 in1020.7 mb - 0.00 in0.0 mm 0.00 in0.0 mm
08:20 PM -3.9°F-19.9°C -12.1°F-24.5°C 67% 6.9 mph W11.1 kmh W 16.1 mph25.9 kmh 30.14 in1020.7 mb - 0.00 in0.0 mm 0.00 in0.0 mm
08:30 PM -4.2°F-20.1°C -12.4°F-24.7°C 67% 8.1 mph W13.0 kmh W 12.7 mph20.4 kmh 30.14 in1020.7 mb - 0.00 in0.0 mm 0.00 in0.0 mm
08:40 PM -4.4°F-20.2°C -12.3°F-24.6°C 68% 5.8 mph W9.3 kmh W 9.2 mph14.8 kmh 30.14 in1020.7 mb - 0.00 in0.0 mm 0.00 in0.0 mm
08:50 PM -4.6°F-20.3°C -12.5°F-24.7°C 68% 5.8 mph W9.3 kmh W 11.5 mph18.5 kmh 30.14 in1020.7 mb - 0.00 in0.0 mm 0.00 in0.0 mm
09:00 PM -4.7°F-20.4°C -12.6°F-24.8°C 68% 10.4 mph W16.7 kmh W 13.8 mph22.2 kmh 30.14 in1020.7 mb - 0.00 in0.0 mm 0.00 in0.0 mm
09:10 PM -4.7°F-20.4°C -12.6°F-24.8°C 68% 5.8 mph W9.3 kmh W 10.4 mph16.7 kmh 30.14 in1020.7 mb - 0.00 in0.0 mm 0.00 in0.0 mm
09:20 PM -4.7°F-20.4°C -12.6°F-24.8°C 68% 10.4 mph W16.7 kmh W 12.7 mph20.4 kmh 30.14 in1020.7 mb - 0.00 in0.0 mm 0.00 in0.0 mm
09:30 PM -4.7°F-20.4°C -12.6°F-24.8°C 68% 8.1 mph W13.0 kmh W 10.4 mph16.7 kmh 30.13 in1020.3 mb - 0.00 in0.0 mm 0.00 in0.0 mm
09:40 PM -4.7°F-20.4°C -12.6°F-24.8°C 68% 9.2 mph WSW14.8 kmh WSW 11.5 mph18.5 kmh 30.13 in1020.3 mb - 0.00 in0.0 mm 0.00 in0.0 mm
09:50 PM -4.7°F-20.4°C -12.6°F-24.8°C 68% 9.2 mph W14.8 kmh W 11.5 mph18.5 kmh 30.12 in1020.0 mb - 0.00 in0.0 mm 0.00 in0.0 mm
10:00 PM -4.7°F-20.4°C -12.6°F-24.8°C 68% 8.1 mph W13.0 kmh W 11.5 mph18.5 kmh 30.12 in1020.0 mb - 0.00 in0.0 mm 0.00 in0.0 mm
10:10 PM -4.7°F-20.4°C -12.6°F-24.8°C 68% 6.9 mph W11.1 kmh W 10.4 mph16.7 kmh 30.12 in1020.0 mb - 0.00 in0.0 mm 0.00 in0.0 mm
10:20 PM -4.7°F-20.4°C -12.6°F-24.8°C 68% 10.4 mph WNW16.7 kmh WNW 13.8 mph22.2 kmh 30.12 in1020.0 mb - 0.00 in0.0 mm 0.00 in0.0 mm
10:30 PM -4.7°F-20.4°C -12.6°F-24.8°C 68% 5.8 mph W9.3 kmh W 11.5 mph18.5 kmh 30.11 in1019.6 mb - 0.00 in0.0 mm 0.00 in0.0 mm
10:40 PM -4.7°F-20.4°C -12.6°F-24.8°C 68% 6.9 mph WSW11.1 kmh WSW 10.4 mph16.7 kmh 30.11 in1019.6 mb - 0.00 in0.0 mm 0.00 in0.0 mm
10:50 PM -7.0°F-21.7°C -15.1°F-26.2°C 67% 6.9 mph W11.1 kmh W 11.5 mph18.5 kmh 30.11 in1019.6 mb - 0.00 in0.0 mm 0.00 in0.0 mm
11:00 PM -7.3°F-21.8°C -15.3°F-26.3°C 67% 8.1 mph W13.0 kmh W 11.5 mph18.5 kmh 30.11 in1019.6 mb - 0.00 in0.0 mm 0.00 in0.0 mm
11:10 PM -7.3°F-21.8°C -15.4°F-26.3°C 67% 9.2 mph W14.8 kmh W 8.1 mph13.0 kmh 30.12 in1020.0 mb - 0.00 in0.0 mm 0.00 in0.0 mm
11:20 PM -7.4°F-21.9°C -15.2°F-26.2°C 68% 6.9 mph W11.1 kmh W 12.7 mph20.4 kmh 30.12 in1020.0 mb - 0.00 in0.0 mm 0.00 in0.0 mm
11:30 PM -7.5°F-21.9°C -15.0°F-26.1°C 69% 6.9 mph W11.1 kmh W 10.4 mph16.7 kmh 30.12 in1020.0 mb - 0.00 in0.0 mm 0.00 in0.0 mm
11:40 PM -8.0°F-22.2°C -15.5°F-26.4°C 69% 6.9 mph WSW11.1 kmh WSW 13.8 mph22.2 kmh 30.12 in1020.0 mb - 0.00 in0.0 mm 0.00 in0.0 mm
11:50 PM -8.2°F-22.3°C -16.6°F-27.0°C 66% 10.4 mph W16.7 kmh W 19.6 mph31.5 kmh 30.13 in1020.3 mb - 0.00 in0.0 mm 0.00 in0.0 mm